sensor_id;sensor_type;location;lat;lon;timestamp;P1;durP1;ratioP1;P2;durP2;ratioP2
66189;SDS011;52992;52.084;5.412;2023-03-17T00:01:46;218.77;;;209.87;;
66189;SDS011;52992;52.084;5.412;2023-03-17T00:04:17;230.23;;;220.80;;
66189;SDS011;52992;52.084;5.412;2023-03-17T00:06:44;212.40;;;203.33;;
66189;SDS011;52992;52.084;5.412;2023-03-17T00:09:12;231.80;;;222.20;;
66189;SDS011;52992;52.084;5.412;2023-03-17T00:11:41;245.60;;;235.20;;
66189;SDS011;52992;52.084;5.412;2023-03-17T00:14:08;236.27;;;226.60;;
66189;SDS011;52992;52.084;5.412;2023-03-17T00:16:40;194.77;;;186.87;;
66189;SDS011;52992;52.084;5.412;2023-03-17T00:19:15;218.30;;;209.17;;
66189;SDS011;52992;52.084;5.412;2023-03-17T00:21:49;208.73;;;200.03;;
66189;SDS011;52992;52.084;5.412;2023-03-17T00:24:16;211.43;;;202.30;;
66189;SDS011;52992;52.084;5.412;2023-03-17T00:26:43;203.83;;;195.07;;
66189;SDS011;52992;52.084;5.412;2023-03-17T00:29:10;199.43;;;191.13;;
66189;SDS011;52992;52.084;5.412;2023-03-17T00:31:37;221.23;;;212.03;;
66189;SDS011;52992;52.084;5.412;2023-03-17T00:34:04;188.77;;;180.80;;
66189;SDS011;52992;52.084;5.412;2023-03-17T00:36:33;222.87;;;213.87;;
66189;SDS011;52992;52.084;5.412;2023-03-17T00:39:01;214.27;;;205.47;;
66189;SDS011;52992;52.084;5.412;2023-03-17T00:41:29;211.43;;;202.30;;
66189;SDS011;52992;52.084;5.412;2023-03-17T00:43:55;210.33;;;201.63;;
66189;SDS011;52992;52.084;5.412;2023-03-17T00:46:26;215.20;;;206.37;;
66189;SDS011;52992;52.084;5.412;2023-03-17T00:49:01;228.47;;;219.13;;
66189;SDS011;52992;52.084;5.412;2023-03-17T00:51:29;231.13;;;221.50;;
66189;SDS011;52992;52.084;5.412;2023-03-17T00:53:56;223.27;;;213.67;;
66189;SDS011;52992;52.084;5.412;2023-03-17T00:56:25;222.63;;;213.37;;
66189;SDS011;52992;52.084;5.412;2023-03-17T00:58:53;214.93;;;206.13;;
66189;SDS011;52992;52.084;5.412;2023-03-17T01:01:19;212.60;;;203.70;;
66189;SDS011;52992;52.084;5.412;2023-03-17T01:03:46;234.77;;;225.07;;
66189;SDS011;52992;52.084;5.412;2023-03-17T01:06:13;229.00;;;219.50;;
66189;SDS011;52992;52.084;5.412;2023-03-17T01:08:41;197.80;;;189.77;;
66189;SDS011;52992;52.084;5.412;2023-03-17T01:11:13;201.27;;;192.93;;
66189;SDS011;52992;52.084;5.412;2023-03-17T01:13:45;242.17;;;232.23;;
66189;SDS011;52992;52.084;5.412;2023-03-17T01:16:13;222.27;;;212.60;;
66189;SDS011;52992;52.084;5.412;2023-03-17T01:18:41;220.97;;;211.90;;
66189;SDS011;52992;52.084;5.412;2023-03-17T01:21:08;220.93;;;211.47;;
66189;SDS011;52992;52.084;5.412;2023-03-17T01:23:35;229.87;;;220.57;;
66189;SDS011;52992;52.084;5.412;2023-03-17T01:26:02;245.30;;;235.20;;
66189;SDS011;52992;52.084;5.412;2023-03-17T01:28:29;245.87;;;235.73;;
66189;SDS011;52992;52.084;5.412;2023-03-17T01:30:56;234.70;;;225.07;;
66189;SDS011;52992;52.084;5.412;2023-03-17T01:33:23;219.33;;;210.50;;
66189;SDS011;52992;52.084;5.412;2023-03-17T01:35:50;235.33;;;225.90;;
66189;SDS011;52992;52.084;5.412;2023-03-17T01:38:17;242.00;;;232.07;;
66189;SDS011;52992;52.084;5.412;2023-03-17T01:40:48;231.87;;;222.40;;
66189;SDS011;52992;52.084;5.412;2023-03-17T01:43:23;220.57;;;211.63;;
66189;SDS011;52992;52.084;5.412;2023-03-17T01:54:32;216.40;;;207.83;;
66189;SDS011;52992;52.084;5.412;2023-03-17T01:57:18;219.10;;;210.03;;
66189;SDS011;52992;52.084;5.412;2023-03-17T01:59:51;232.27;;;222.73;;
66189;SDS011;52992;52.084;5.412;2023-03-17T02:02:23;231.23;;;221.77;;
66189;SDS011;52992;52.084;5.412;2023-03-17T02:04:56;211.53;;;202.87;;
66189;SDS011;52992;52.084;5.412;2023-03-17T02:07:24;230.93;;;221.30;;
66189;SDS011;52992;52.084;5.412;2023-03-17T02:09:52;208.47;;;199.97;;
66189;SDS011;52992;52.084;5.412;2023-03-17T02:12:21;217.90;;;208.97;;
66189;SDS011;52992;52.084;5.412;2023-03-17T02:14:50;203.10;;;194.67;;
66189;SDS011;52992;52.084;5.412;2023-03-17T02:17:18;234.67;;;225.30;;
66189;SDS011;52992;52.084;5.412;2023-03-17T02:19:47;214.27;;;205.57;;
66189;SDS011;52992;52.084;5.412;2023-03-17T02:22:15;222.40;;;212.97;;
66189;SDS011;52992;52.084;5.412;2023-03-17T02:27:15;201.60;;;193.50;;
66189;SDS011;52992;52.084;5.412;2023-03-17T02:29:51;224.10;;;214.93;;
66189;SDS011;52992;52.084;5.412;2023-03-17T02:32:19;196.43;;;188.47;;
66189;SDS011;52992;52.084;5.412;2023-03-17T02:34:46;194.47;;;186.27;;
66189;SDS011;52992;52.084;5.412;2023-03-17T02:37:14;212.90;;;204.20;;
66189;SDS011;52992;52.084;5.412;2023-03-17T02:39:42;193.83;;;185.83;;
66189;SDS011;52992;52.084;5.412;2023-03-17T02:42:09;198.50;;;190.50;;
66189;SDS011;52992;52.084;5.412;2023-03-17T02:44:38;206.73;;;198.60;;
66189;SDS011;52992;52.084;5.412;2023-03-17T02:47:05;227.33;;;218.10;;
66189;SDS011;52992;52.084;5.412;2023-03-17T02:49:33;193.93;;;185.83;;
66189;SDS011;52992;52.084;5.412;2023-03-17T02:52:02;210.13;;;201.33;;
66189;SDS011;52992;52.084;5.412;2023-03-17T02:54:29;214.67;;;205.97;;
66189;SDS011;52992;52.084;5.412;2023-03-17T02:56:56;208.73;;;200.13;;
66189;SDS011;52992;52.084;5.412;2023-03-17T02:59:22;212.70;;;204.23;;
66189;SDS011;52992;52.084;5.412;2023-03-17T03:01:49;243.93;;;234.23;;
66189;SDS011;52992;52.084;5.412;2023-03-17T03:04:17;209.60;;;201.33;;
66189;SDS011;52992;52.084;5.412;2023-03-17T03:06:44;215.47;;;206.93;;
66189;SDS011;52992;52.084;5.412;2023-03-17T03:09:13;222.10;;;213.23;;
66189;SDS011;52992;52.084;5.412;2023-03-17T03:11:40;211.07;;;202.43;;
66189;SDS011;52992;52.084;5.412;2023-03-17T03:14:08;214.23;;;205.47;;
66189;SDS011;52992;52.084;5.412;2023-03-17T03:16:35;241.20;;;231.30;;
66189;SDS011;52992;52.084;5.412;2023-03-17T03:19:03;209.83;;;201.47;;
66189;SDS011;52992;52.084;5.412;2023-03-17T03:21:30;216.73;;;208.30;;
66189;SDS011;52992;52.084;5.412;2023-03-17T03:23:57;240.80;;;231.07;;
66189;SDS011;52992;52.084;5.412;2023-03-17T03:26:24;229.83;;;220.77;;
66189;SDS011;52992;52.084;5.412;2023-03-17T03:28:52;202.77;;;194.77;;
66189;SDS011;52992;52.084;5.412;2023-03-17T03:31:19;243.50;;;233.80;;
66189;SDS011;52992;52.084;5.412;2023-03-17T03:33:46;227.90;;;218.77;;
66189;SDS011;52992;52.084;5.412;2023-03-17T03:36:13;233.53;;;224.30;;
66189;SDS011;52992;52.084;5.412;2023-03-17T03:38:40;218.00;;;209.40;;
66189;SDS011;52992;52.084;5.412;2023-03-17T03:41:07;208.73;;;200.33;;
66189;SDS011;52992;52.084;5.412;2023-03-17T03:43:35;210.50;;;201.63;;
66189;SDS011;52992;52.084;5.412;2023-03-17T03:46:02;210.37;;;202.03;;
66189;SDS011;52992;52.084;5.412;2023-03-17T03:48:29;195.37;;;187.33;;
66189;SDS011;52992;52.084;5.412;2023-03-17T03:50:57;209.70;;;201.13;;
66189;SDS011;52992;52.084;5.412;2023-03-17T03:53:26;205.63;;;197.30;;
66189;SDS011;52992;52.084;5.412;2023-03-17T03:55:54;213.67;;;205.00;;
66189;SDS011;52992;52.084;5.412;2023-03-17T03:58:21;201.73;;;193.43;;
66189;SDS011;52992;52.084;5.412;2023-03-17T04:00:48;201.20;;;193.13;;
66189;SDS011;52992;52.084;5.412;2023-03-17T04:03:15;212.20;;;203.57;;
66189;SDS011;52992;52.084;5.412;2023-03-17T04:05:42;245.40;;;235.53;;
66189;SDS011;52992;52.084;5.412;2023-03-17T04:08:09;204.27;;;196.17;;
66189;SDS011;52992;52.084;5.412;2023-03-17T04:10:36;219.33;;;210.47;;
66189;SDS011;52992;52.084;5.412;2023-03-17T04:13:03;221.30;;;212.33;;
66189;SDS011;52992;52.084;5.412;2023-03-17T04:15:30;206.10;;;197.53;;
66189;SDS011;52992;52.084;5.412;2023-03-17T04:17:58;217.83;;;209.03;;
66189;SDS011;52992;52.084;5.412;2023-03-17T04:20:24;212.30;;;203.63;;
66189;SDS011;52992;52.084;5.412;2023-03-17T04:22:51;199.80;;;191.57;;
66189;SDS011;52992;52.084;5.412;2023-03-17T04:25:18;186.47;;;178.97;;
66189;SDS011;52992;52.084;5.412;2023-03-17T04:27:45;211.33;;;202.93;;
66189;SDS011;52992;52.084;5.412;2023-03-17T04:30:12;187.10;;;179.17;;
66189;SDS011;52992;52.084;5.412;2023-03-17T04:32:42;181.47;;;173.83;;
66189;SDS011;52992;52.084;5.412;2023-03-17T04:35:13;199.37;;;191.40;;
66189;SDS011;52992;52.084;5.412;2023-03-17T04:37:42;186.83;;;179.13;;
66189;SDS011;52992;52.084;5.412;2023-03-17T04:40:10;184.63;;;177.20;;
66189;SDS011;52992;52.084;5.412;2023-03-17T04:42:38;192.17;;;184.57;;
66189;SDS011;52992;52.084;5.412;2023-03-17T04:45:06;191.77;;;183.97;;
66189;SDS011;52992;52.084;5.412;2023-03-17T04:47:34;205.40;;;197.10;;
66189;SDS011;52992;52.084;5.412;2023-03-17T04:50:02;208.00;;;199.63;;
66189;SDS011;52992;52.084;5.412;2023-03-17T04:52:30;194.97;;;187.33;;
66189;SDS011;52992;52.084;5.412;2023-03-17T04:54:56;187.33;;;179.73;;
66189;SDS011;52992;52.084;5.412;2023-03-17T04:57:23;201.90;;;193.07;;
66189;SDS011;52992;52.084;5.412;2023-03-17T04:59:50;200.80;;;192.60;;
66189;SDS011;52992;52.084;5.412;2023-03-17T05:02:17;186.20;;;178.57;;
66189;SDS011;52992;52.084;5.412;2023-03-17T05:04:44;203.33;;;194.90;;
66189;SDS011;52992;52.084;5.412;2023-03-17T05:07:11;198.03;;;189.97;;
66189;SDS011;52992;52.084;5.412;2023-03-17T05:09:38;195.17;;;186.87;;
66189;SDS011;52992;52.084;5.412;2023-03-17T05:12:06;193.33;;;185.20;;
66189;SDS011;52992;52.084;5.412;2023-03-17T05:14:34;187.23;;;179.60;;
66189;SDS011;52992;52.084;5.412;2023-03-17T05:17:02;196.67;;;188.67;;
66189;SDS011;52992;52.084;5.412;2023-03-17T05:19:28;179.13;;;171.60;;
66189;SDS011;52992;52.084;5.412;2023-03-17T05:21:55;197.07;;;188.97;;
66189;SDS011;52992;52.084;5.412;2023-03-17T05:24:22;178.30;;;171.13;;
66189;SDS011;52992;52.084;5.412;2023-03-17T05:26:49;205.23;;;196.93;;
66189;SDS011;52992;52.084;5.412;2023-03-17T05:29:16;205.27;;;196.87;;
66189;SDS011;52992;52.084;5.412;2023-03-17T05:31:42;194.87;;;187.13;;
66189;SDS011;52992;52.084;5.412;2023-03-17T05:34:09;192.33;;;184.43;;
66189;SDS011;52992;52.084;5.412;2023-03-17T05:36:36;183.17;;;175.73;;
66189;SDS011;52992;52.084;5.412;2023-03-17T05:39:03;202.70;;;194.60;;
66189;SDS011;52992;52.084;5.412;2023-03-17T05:41:30;193.37;;;185.40;;
66189;SDS011;52992;52.084;5.412;2023-03-17T05:43:57;186.90;;;179.33;;
66189;SDS011;52992;52.084;5.412;2023-03-17T05:46:24;194.80;;;186.77;;
66189;SDS011;52992;52.084;5.412;2023-03-17T05:48:51;191.23;;;183.70;;
66189;SDS011;52992;52.084;5.412;2023-03-17T05:51:18;177.07;;;169.90;;
66189;SDS011;52992;52.084;5.412;2023-03-17T05:53:46;182.13;;;174.87;;
66189;SDS011;52992;52.084;5.412;2023-03-17T05:56:13;209.03;;;200.63;;
66189;SDS011;52992;52.084;5.412;2023-03-17T05:58:39;191.50;;;183.70;;
66189;SDS011;52992;52.084;5.412;2023-03-17T06:01:06;196.37;;;188.40;;
66189;SDS011;52992;52.084;5.412;2023-03-17T06:03:33;193.23;;;185.43;;
66189;SDS011;52992;52.084;5.412;2023-03-17T06:06:04;193.97;;;186.03;;
66189;SDS011;52992;52.084;5.412;2023-03-17T06:08:31;213.00;;;204.30;;
66189;SDS011;52992;52.084;5.412;2023-03-17T06:10:57;209.03;;;200.57;;
66189;SDS011;52992;52.084;5.412;2023-03-17T06:13:24;182.57;;;175.00;;
66189;SDS011;52992;52.084;5.412;2023-03-17T06:15:51;189.80;;;182.10;;
66189;SDS011;52992;52.084;5.412;2023-03-17T06:18:18;208.13;;;199.67;;
66189;SDS011;52992;52.084;5.412;2023-03-17T06:20:45;188.17;;;180.63;;
66189;SDS011;52992;52.084;5.412;2023-03-17T06:23:12;214.93;;;206.23;;
66189;SDS011;52992;52.084;5.412;2023-03-17T06:25:39;188.23;;;180.53;;
66189;SDS011;52992;52.084;5.412;2023-03-17T06:28:05;192.53;;;184.77;;
66189;SDS011;52992;52.084;5.412;2023-03-17T06:30:33;208.60;;;200.03;;
66189;SDS011;52992;52.084;5.412;2023-03-17T06:33:01;191.50;;;183.23;;
66189;SDS011;52992;52.084;5.412;2023-03-17T06:35:28;199.23;;;191.13;;
66189;SDS011;52992;52.084;5.412;2023-03-17T06:37:56;186.83;;;179.17;;
66189;SDS011;52992;52.084;5.412;2023-03-17T06:40:23;199.90;;;191.70;;
66189;SDS011;52992;52.084;5.412;2023-03-17T06:42:50;201.90;;;193.57;;
66189;SDS011;52992;52.084;5.412;2023-03-17T06:45:17;198.30;;;190.23;;
66189;SDS011;52992;52.084;5.412;2023-03-17T06:47:44;191.97;;;184.23;;
66189;SDS011;52992;52.084;5.412;2023-03-17T06:50:11;214.00;;;205.47;;
66189;SDS011;52992;52.084;5.412;2023-03-17T06:52:38;204.40;;;196.23;;
66189;SDS011;52992;52.084;5.412;2023-03-17T06:55:06;199.40;;;191.23;;
66189;SDS011;52992;52.084;5.412;2023-03-17T06:57:34;223.83;;;214.93;;
66189;SDS011;52992;52.084;5.412;2023-03-17T07:00:02;206.93;;;198.53;;
66189;SDS011;52992;52.084;5.412;2023-03-17T07:02:32;202.93;;;194.60;;
66189;SDS011;52992;52.084;5.412;2023-03-17T07:04:59;215.70;;;206.90;;
66189;SDS011;52992;52.084;5.412;2023-03-17T07:07:26;220.33;;;211.33;;
66189;SDS011;52992;52.084;5.412;2023-03-17T07:09:53;244.13;;;234.33;;
66189;SDS011;52992;52.084;5.412;2023-03-17T07:12:20;251.83;;;241.77;;
66189;SDS011;52992;52.084;5.412;2023-03-17T07:14:47;207.33;;;199.13;;
66189;SDS011;52992;52.084;5.412;2023-03-17T07:17:14;215.03;;;206.23;;
66189;SDS011;52992;52.084;5.412;2023-03-17T07:19:41;262.57;;;251.40;;
66189;SDS011;52992;52.084;5.412;2023-03-17T07:22:10;267.73;;;256.80;;
66189;SDS011;52992;52.084;5.412;2023-03-17T07:24:37;234.13;;;224.43;;
66189;SDS011;52992;52.084;5.412;2023-03-17T07:27:05;257.17;;;246.33;;
66189;SDS011;52992;52.084;5.412;2023-03-17T07:29:32;270.20;;;259.00;;
66189;SDS011;52992;52.084;5.412;2023-03-17T07:31:59;225.80;;;216.17;;
66189;SDS011;52992;52.084;5.412;2023-03-17T07:34:26;240.77;;;230.87;;
66189;SDS011;52992;52.084;5.412;2023-03-17T07:36:54;275.83;;;263.90;;
66189;SDS011;52992;52.084;5.412;2023-03-17T07:39:21;241.87;;;231.83;;
66189;SDS011;52992;52.084;5.412;2023-03-17T07:41:48;235.57;;;225.43;;
66189;SDS011;52992;52.084;5.412;2023-03-17T07:44:20;230.83;;;221.60;;
66189;SDS011;52992;52.084;5.412;2023-03-17T07:46:48;233.60;;;223.93;;
66189;SDS011;52992;52.084;5.412;2023-03-17T07:49:17;222.33;;;213.27;;
66189;SDS011;52992;52.084;5.412;2023-03-17T07:52:05;247.40;;;237.00;;
66189;SDS011;52992;52.084;5.412;2023-03-17T07:54:33;278.70;;;266.83;;
66189;SDS011;52992;52.084;5.412;2023-03-17T07:57:02;257.73;;;247.30;;
66189;SDS011;52992;52.084;5.412;2023-03-17T07:59:29;270.97;;;259.90;;
66189;SDS011;52992;52.084;5.412;2023-03-17T08:01:56;256.30;;;245.83;;
66189;SDS011;52992;52.084;5.412;2023-03-17T08:04:25;284.07;;;272.77;;
66189;SDS011;52992;52.084;5.412;2023-03-17T08:06:53;291.33;;;279.23;;
66189;SDS011;52992;52.084;5.412;2023-03-17T08:09:20;284.13;;;272.57;;
66189;SDS011;52992;52.084;5.412;2023-03-17T08:11:50;289.60;;;277.83;;
66189;SDS011;52992;52.084;5.412;2023-03-17T08:14:17;308.67;;;295.97;;
66189;SDS011;52992;52.084;5.412;2023-03-17T08:16:44;327.27;;;313.40;;
66189;SDS011;52992;52.084;5.412;2023-03-17T08:19:11;363.37;;;347.43;;
66189;SDS011;52992;52.084;5.412;2023-03-17T08:21:38;321.17;;;307.33;;
66189;SDS011;52992;52.084;5.412;2023-03-17T08:24:05;357.00;;;340.97;;
66189;SDS011;52992;52.084;5.412;2023-03-17T08:26:32;382.43;;;365.83;;
66189;SDS011;52992;52.084;5.412;2023-03-17T08:28:59;439.17;;;418.07;;
66189;SDS011;52992;52.084;5.412;2023-03-17T08:31:26;424.30;;;404.37;;
66189;SDS011;52992;52.084;5.412;2023-03-17T08:33:53;429.53;;;408.80;;
66189;SDS011;52992;52.084;5.412;2023-03-17T08:36:22;443.80;;;422.30;;
66189;SDS011;52992;52.084;5.412;2023-03-17T08:38:49;442.67;;;421.83;;
66189;SDS011;52992;52.084;5.412;2023-03-17T08:41:18;447.33;;;426.10;;
66189;SDS011;52992;52.084;5.412;2023-03-17T08:43:46;486.80;;;463.07;;
66189;SDS011;52992;52.084;5.412;2023-03-17T08:46:24;497.77;;;473.57;;
66189;SDS011;52992;52.084;5.412;2023-03-17T08:48:56;498.97;;;475.27;;
66189;SDS011;52992;52.084;5.412;2023-03-17T08:51:24;501.00;;;477.07;;
66189;SDS011;52992;52.084;5.412;2023-03-17T08:53:53;534.53;;;507.97;;
66189;SDS011;52992;52.084;5.412;2023-03-17T08:56:21;534.67;;;506.97;;
66189;SDS011;52992;52.084;5.412;2023-03-17T08:58:48;528.47;;;501.90;;
66189;SDS011;52992;52.084;5.412;2023-03-17T09:01:16;560.77;;;529.60;;
66189;SDS011;52992;52.084;5.412;2023-03-17T09:03:43;579.83;;;547.27;;
66189;SDS011;52992;52.084;5.412;2023-03-17T09:06:11;585.20;;;552.10;;
66189;SDS011;52992;52.084;5.412;2023-03-17T09:08:39;555.23;;;526.53;;
66189;SDS011;52992;52.084;5.412;2023-03-17T09:11:10;539.37;;;511.70;;
66189;SDS011;52992;52.084;5.412;2023-03-17T09:13:39;535.20;;;506.10;;
66189;SDS011;52992;52.084;5.412;2023-03-17T09:16:06;537.43;;;507.30;;
66189;SDS011;52992;52.084;5.412;2023-03-17T09:18:34;537.73;;;508.90;;
66189;SDS011;52992;52.084;5.412;2023-03-17T09:21:01;558.83;;;526.67;;
66189;SDS011;52992;52.084;5.412;2023-03-17T09:23:28;573.53;;;543.33;;
66189;SDS011;52992;52.084;5.412;2023-03-17T09:25:56;602.87;;;567.57;;
66189;SDS011;52992;52.084;5.412;2023-03-17T09:28:23;584.77;;;552.03;;
66189;SDS011;52992;52.084;5.412;2023-03-17T09:30:50;565.43;;;533.70;;
66189;SDS011;52992;52.084;5.412;2023-03-17T09:33:18;594.23;;;558.17;;
66189;SDS011;52992;52.084;5.412;2023-03-17T09:35:44;586.80;;;550.97;;
66189;SDS011;52992;52.084;5.412;2023-03-17T09:38:11;598.13;;;563.20;;
66189;SDS011;52992;52.084;5.412;2023-03-17T09:40:43;592.10;;;561.07;;
66189;SDS011;52992;52.084;5.412;2023-03-17T09:46:08;560.67;;;531.23;;
66189;SDS011;52992;52.084;5.412;2023-03-17T09:49:14;589.23;;;558.03;;
66189;SDS011;52992;52.084;5.412;2023-03-17T09:51:48;587.50;;;554.33;;
66189;SDS011;52992;52.084;5.412;2023-03-17T09:54:17;647.17;;;608.97;;
66189;SDS011;52992;52.084;5.412;2023-03-17T09:57:26;700.30;;;655.07;;
66189;SDS011;52992;52.084;5.412;2023-03-17T09:59:47;648.47;;;604.90;;
66189;SDS011;52992;52.084;5.412;2023-03-17T10:02:27;698.77;;;646.47;;
66189;SDS011;52992;52.084;5.412;2023-03-17T10:04:56;717.40;;;664.17;;
66189;SDS011;52992;52.084;5.412;2023-03-17T10:07:37;718.60;;;666.10;;
66189;SDS011;52992;52.084;5.412;2023-03-17T10:10:28;728.97;;;674.77;;
66189;SDS011;52992;52.084;5.412;2023-03-17T10:16:13;741.87;;;686.67;;
66189;SDS011;52992;52.084;5.412;2023-03-17T10:19:03;731.87;;;677.93;;
66189;SDS011;52992;52.084;5.412;2023-03-17T10:21:32;731.37;;;676.80;;
66189;SDS011;52992;52.084;5.412;2023-03-17T10:24:03;700.57;;;654.20;;
66189;SDS011;52992;52.084;5.412;2023-03-17T10:26:35;700.00;;;651.83;;
66189;SDS011;52992;52.084;5.412;2023-03-17T10:29:10;711.77;;;662.07;;
66189;SDS011;52992;52.084;5.412;2023-03-17T10:31:41;713.27;;;665.73;;
66189;SDS011;52992;52.084;5.412;2023-03-17T10:34:15;744.27;;;689.00;;
66189;SDS011;52992;52.084;5.412;2023-03-17T10:36:58;749.60;;;695.93;;
66189;SDS011;52992;52.084;5.412;2023-03-17T10:39:40;773.00;;;716.97;;
66189;SDS011;52992;52.084;5.412;2023-03-17T10:42:22;811.77;;;748.07;;
66189;SDS011;52992;52.084;5.412;2023-03-17T10:44:51;835.80;;;767.07;;
66189;SDS011;52992;52.084;5.412;2023-03-17T10:47:24;863.37;;;796.00;;
66189;SDS011;52992;52.084;5.412;2023-03-17T10:49:51;831.80;;;762.43;;
66189;SDS011;52992;52.084;5.412;2023-03-17T10:52:22;812.37;;;745.43;;
66189;SDS011;52992;52.084;5.412;2023-03-17T10:54:58;854.93;;;788.60;;
66189;SDS011;52992;52.084;5.412;2023-03-17T10:57:38;856.77;;;789.30;;
66189;SDS011;52992;52.084;5.412;2023-03-17T11:00:15;869.20;;;795.90;;
66189;SDS011;52992;52.084;5.412;2023-03-17T11:02:56;787.93;;;721.03;;
66189;SDS011;52992;52.084;5.412;2023-03-17T11:05:25;777.70;;;711.77;;
66189;SDS011;52992;52.084;5.412;2023-03-17T11:08:04;758.03;;;695.77;;
66189;SDS011;52992;52.084;5.412;2023-03-17T11:10:40;746.73;;;689.07;;
66189;SDS011;52992;52.084;5.412;2023-03-17T11:13:07;807.13;;;744.63;;
66189;SDS011;52992;52.084;5.412;2023-03-17T11:15:40;817.17;;;754.73;;
66189;SDS011;52992;52.084;5.412;2023-03-17T11:18:21;783.20;;;724.37;;
66189;SDS011;52992;52.084;5.412;2023-03-17T11:21:00;820.20;;;758.00;;
66189;SDS011;52992;52.084;5.412;2023-03-17T11:23:49;794.30;;;735.37;;
66189;SDS011;52992;52.084;5.412;2023-03-17T11:35:23;688.80;;;640.73;;
66189;SDS011;52992;52.084;5.412;2023-03-17T11:46:07;845.47;;;784.43;;
66189;SDS011;52992;52.084;5.412;2023-03-17T11:54:40;824.10;;;761.43;;
66189;SDS011;52992;52.084;5.412;2023-03-17T11:57:31;797.00;;;736.83;;
66189;SDS011;52992;52.084;5.412;2023-03-17T12:00:19;775.70;;;716.80;;
66189;SDS011;52992;52.084;5.412;2023-03-17T12:05:33;791.30;;;734.10;;
66189;SDS011;52992;52.084;5.412;2023-03-17T12:10:41;803.20;;;745.10;;
66189;SDS011;52992;52.084;5.412;2023-03-17T12:13:17;860.37;;;795.70;;
66189;SDS011;52992;52.084;5.412;2023-03-17T12:16:13;781.83;;;724.30;;
66189;SDS011;52992;52.084;5.412;2023-03-17T12:19:01;766.83;;;711.00;;
66189;SDS011;52992;52.084;5.412;2023-03-17T12:21:53;762.37;;;703.93;;
66189;SDS011;52992;52.084;5.412;2023-03-17T12:24:31;747.83;;;690.87;;
66189;SDS011;52992;52.084;5.412;2023-03-17T12:29:55;739.43;;;683.87;;
66189;SDS011;52992;52.084;5.412;2023-03-17T12:32:37;849.87;;;785.53;;
66189;SDS011;52992;52.084;5.412;2023-03-17T12:35:28;710.07;;;656.43;;
66189;SDS011;52992;52.084;5.412;2023-03-17T12:38:00;719.97;;;666.10;;
66189;SDS011;52992;52.084;5.412;2023-03-17T12:54:54;610.57;;;569.47;;
66189;SDS011;52992;52.084;5.412;2023-03-17T12:57:27;714.67;;;665.83;;
66189;SDS011;52992;52.084;5.412;2023-03-17T13:00:04;695.07;;;648.13;;
66189;SDS011;52992;52.084;5.412;2023-03-17T13:02:45;694.27;;;648.47;;
66189;SDS011;52992;52.084;5.412;2023-03-17T13:05:17;692.77;;;646.63;;
66189;SDS011;52992;52.084;5.412;2023-03-17T13:07:59;672.53;;;629.10;;
66189;SDS011;52992;52.084;5.412;2023-03-17T13:20:44;651.90;;;609.20;;
66189;SDS011;52992;52.084;5.412;2023-03-17T13:23:33;667.93;;;624.27;;
66189;SDS011;52992;52.084;5.412;2023-03-17T13:26:05;666.73;;;623.03;;
66189;SDS011;52992;52.084;5.412;2023-03-17T13:31:13;652.33;;;610.13;;
66189;SDS011;52992;52.084;5.412;2023-03-17T13:33:53;707.83;;;661.77;;
66189;SDS011;52992;52.084;5.412;2023-03-17T13:39:00;753.17;;;703.27;;
66189;SDS011;52992;52.084;5.412;2023-03-17T13:42:12;687.23;;;643.63;;
66189;SDS011;52992;52.084;5.412;2023-03-17T13:47:39;723.63;;;675.47;;
66189;SDS011;52992;52.084;5.412;2023-03-17T13:52:41;752.60;;;702.70;;
66189;SDS011;52992;52.084;5.412;2023-03-17T14:00:31;731.80;;;683.53;;
66189;SDS011;52992;52.084;5.412;2023-03-17T14:03:01;745.73;;;696.10;;
66189;SDS011;52992;52.084;5.412;2023-03-17T14:05:32;730.87;;;682.93;;
66189;SDS011;52992;52.084;5.412;2023-03-17T14:08:03;753.23;;;703.00;;
66189;SDS011;52992;52.084;5.412;2023-03-17T14:10:54;760.77;;;710.20;;
66189;SDS011;52992;52.084;5.412;2023-03-17T14:16:15;738.87;;;689.20;;
66189;SDS011;52992;52.084;5.412;2023-03-17T14:18:59;756.40;;;705.50;;
66189;SDS011;52992;52.084;5.412;2023-03-17T14:21:55;762.37;;;710.83;;
66189;SDS011;52992;52.084;5.412;2023-03-17T14:24:28;767.30;;;714.20;;
66189;SDS011;52992;52.084;5.412;2023-03-17T14:27:02;757.77;;;706.80;;
66189;SDS011;52992;52.084;5.412;2023-03-17T14:29:32;756.07;;;704.33;;
66189;SDS011;52992;52.084;5.412;2023-03-17T14:32:09;762.77;;;709.53;;
66189;SDS011;52992;52.084;5.412;2023-03-17T14:34:44;706.03;;;659.50;;
66189;SDS011;52992;52.084;5.412;2023-03-17T14:37:19;695.90;;;650.10;;
66189;SDS011;52992;52.084;5.412;2023-03-17T14:39:47;684.47;;;639.90;;
66189;SDS011;52992;52.084;5.412;2023-03-17T14:42:18;669.53;;;627.27;;
66189;SDS011;52992;52.084;5.412;2023-03-17T14:44:58;712.67;;;665.67;;
66189;SDS011;52992;52.084;5.412;2023-03-17T14:47:26;724.20;;;675.63;;
66189;SDS011;52992;52.084;5.412;2023-03-17T14:49:54;749.47;;;699.57;;
66189;SDS011;52992;52.084;5.412;2023-03-17T14:52:24;767.67;;;716.37;;
66189;SDS011;52992;52.084;5.412;2023-03-17T14:54:54;745.30;;;695.97;;
66189;SDS011;52992;52.084;5.412;2023-03-17T14:57:29;757.47;;;706.90;;
66189;SDS011;52992;52.084;5.412;2023-03-17T14:59:59;762.17;;;709.47;;
66189;SDS011;52992;52.084;5.412;2023-03-17T15:02:33;754.43;;;702.33;;
66189;SDS011;52992;52.084;5.412;2023-03-17T15:07:53;757.63;;;707.80;;
66189;SDS011;52992;52.084;5.412;2023-03-17T15:10:21;695.50;;;650.00;;
66189;SDS011;52992;52.084;5.412;2023-03-17T15:12:58;697.80;;;652.03;;
66189;SDS011;52992;52.084;5.412;2023-03-17T15:15:30;741.33;;;691.93;;
66189;SDS011;52992;52.084;5.412;2023-03-17T15:18:01;731.67;;;683.53;;
66189;SDS011;52992;52.084;5.412;2023-03-17T15:20:32;711.13;;;663.67;;
66189;SDS011;52992;52.084;5.412;2023-03-17T15:23:04;721.87;;;674.60;;
66189;SDS011;52992;52.084;5.412;2023-03-17T15:25:51;663.67;;;621.87;;
66189;SDS011;52992;52.084;5.412;2023-03-17T15:28:24;642.83;;;600.77;;
66189;SDS011;52992;52.084;5.412;2023-03-17T15:30:55;647.70;;;605.93;;
66189;SDS011;52992;52.084;5.412;2023-03-17T15:33:36;649.40;;;608.10;;
66189;SDS011;52992;52.084;5.412;2023-03-17T15:36:04;609.77;;;571.40;;
66189;SDS011;52992;52.084;5.412;2023-03-17T15:38:31;604.33;;;566.83;;
66189;SDS011;52992;52.084;5.412;2023-03-17T15:40:59;666.63;;;623.50;;
66189;SDS011;52992;52.084;5.412;2023-03-17T15:43:26;861.45;;;793.90;;
66189;SDS011;52992;52.084;5.412;2023-03-17T15:45:53;910.70;;;835.45;;
66189;SDS011;52992;52.084;5.412;2023-03-17T15:48:26;756.97;;;702.80;;
66189;SDS011;52992;52.084;5.412;2023-03-17T15:50:55;704.50;;;657.23;;